Time;durP1;ratioP1;P1;durP2;ratioP2;P2;SDS_P1;SDS_P2;PMS_P1;PMS_P2;Temp;Humidity;BMP_temperature;BMP_pressure;BME280_temperature;BME280_humidity;BME280_pressure;Samples;Min_cycle;Max_cycle;Signal;HPM_P1;HPM_P2
2022/05/06 00:02:07;;;;;;;11.00;6.03;;;8.30;99.90;;;;;;4771217;30;20444;-85
2022/05/06 00:04:33;;;;;;;11.10;6.20;;;8.20;99.90;;;;;;4771113;30;20085;-84
2022/05/06 00:06:58;;;;;;;13.40;6.70;;;8.20;99.90;;;;;;4787626;30;20059;-85
2022/05/06 00:09:24;;;;;;;11.90;5.95;;;9.00;99.90;;;;;;4786823;29;20058;-84
2022/05/06 00:11:51;;;;;;;11.13;6.18;;;8.20;99.90;;;;;;4787253;30;20048;-85
2022/05/06 00:14:20;;;;;;;14.15;7.13;;;8.20;99.90;;;;;;4787106;30;20063;-85
2022/05/06 00:16:46;;;;;;;17.88;9.15;;;9.00;99.90;;;;;;4770818;30;20051;-85
2022/05/06 00:19:12;;;;;;;19.02;8.63;;;8.10;99.90;;;;;;4787175;30;20054;-85
2022/05/06 00:21:38;;;;;;;16.70;7.93;;;8.20;99.90;;;;;;4787056;30;20093;-85
2022/05/06 00:24:04;;;;;;;17.20;8.35;;;8.60;99.90;;;;;;4771104;30;20087;-85
2022/05/06 00:26:31;;;;;;;13.38;7.68;;;8.10;99.90;;;;;;4786891;30;20104;-85
2022/05/06 00:28:56;;;;;;;16.33;8.00;;;8.10;99.90;;;;;;4770010;30;20091;-84
2022/05/06 00:31:22;;;;;;;14.18;7.72;;;8.10;99.90;;;;;;4786982;30;20097;-83
2022/05/06 00:33:48;;;;;;;14.40;8.02;;;9.00;99.90;;;;;;4770592;30;20424;-84
2022/05/06 00:36:14;;;;;;;16.58;7.68;;;6.70;99.90;;;;;;4787175;30;20418;-84
2022/05/06 00:38:42;;;;;;;15.90;8.18;;;8.10;99.90;;;;;;4786738;30;20051;-84
2022/05/06 00:41:08;;;;;;;12.43;6.57;;;8.40;99.90;;;;;;4787155;30;20092;-84
2022/05/06 00:43:37;;;;;;;13.23;6.78;;;8.90;99.90;;;;;;4786886;30;20083;-84
2022/05/06 00:46:03;;;;;;;10.55;6.28;;;8.00;99.90;;;;;;4770945;30;20134;-84
2022/05/06 00:48:34;;;;;;;12.73;6.03;;;8.00;99.90;;;;;;4786632;29;20052;-84
2022/05/06 00:51:01;;;;;;;11.90;5.90;;;8.40;99.90;;;;;;4774514;30;20504;-84
2022/05/06 00:53:27;;;;;;;11.93;5.70;;;8.50;99.90;;;;;;4774346;30;20513;-84
2022/05/06 00:55:55;;;;;;;11.95;5.93;;;7.90;99.90;;;;;;4774253;30;20059;-84
2022/05/06 00:58:29;;;;;;;10.90;5.68;;;8.30;99.90;;;;;;4790512;30;20044;-84
2022/05/06 01:00:54;;;;;;;7.75;4.78;;;8.60;99.90;;;;;;4774177;30;20505;-84
2022/05/06 01:03:20;;;;;;;8.18;5.25;;;7.60;99.90;;;;;;4790359;30;20043;-84
2022/05/06 01:05:47;;;;;;;7.65;4.75;;;8.60;99.90;;;;;;4774224;30;20081;-83
2022/05/06 01:08:13;;;;;;;8.15;5.40;;;7.60;99.90;;;;;;4790396;30;20073;-84
2022/05/06 01:10:41;;;;;;;8.48;5.07;;;8.40;99.90;;;;;;4789748;29;20124;-84
2022/05/06 01:13:07;;;;;;;10.57;6.32;;;6.80;99.90;;;;;;4790022;30;20059;-83
2022/05/06 01:15:33;;;;;;;9.68;4.63;;;7.00;99.90;;;;;;4790332;30;20187;-83
2022/05/06 01:17:58;;;;;;;6.45;2.88;;;6.90;99.90;;;;;;4789839;30;20059;-84
2022/05/06 01:20:25;;;;;;;5.53;2.95;;;6.20;99.90;;;;;;4789794;30;20052;-83
2022/05/06 01:22:53;;;;;;;3.47;2.35;;;6.70;99.90;;;;;;4789544;30;20059;-83
2022/05/06 01:25:20;;;;;;;5.13;2.33;;;7.10;99.90;;;;;;4789957;30;20135;-83
2022/05/06 01:27:50;;;;;;;2.50;1.60;;;7.60;99.90;;;;;;4773967;30;20170;-84
2022/05/06 01:30:47;;;;;;;2.97;2.13;;;6.80;99.90;;;;;;4790312;30;20047;-84
2022/05/06 01:33:18;;;;;;;3.65;2.08;;;6.60;99.90;;;;;;4789059;30;20566;-85
2022/05/06 01:36:06;;;;;;;5.35;2.88;;;6.60;99.90;;;;;;4789804;29;20100;-84
2022/05/06 01:38:41;;;;;;;5.20;3.17;;;6.50;99.90;;;;;;4789238;30;20512;-84
2022/05/06 01:41:09;;;;;;;4.93;3.25;;;6.00;99.90;;;;;;4789602;29;20061;-85
2022/05/06 01:43:47;;;;;;;4.55;3.13;;;6.60;99.90;;;;;;4790008;30;20055;-84
2022/05/06 01:46:14;;;;;;;3.97;2.97;;;6.40;99.90;;;;;;4789623;30;20142;-85
2022/05/06 01:48:42;;;;;;;4.00;2.30;;;6.40;99.90;;;;;;4789729;30;20051;-85
2022/05/06 01:51:10;;;;;;;3.92;2.40;;;6.30;99.90;;;;;;4789255;30;20386;-85
2022/05/06 01:53:36;;;;;;;4.20;2.72;;;7.30;99.90;;;;;;4789254;29;20459;-85
2022/05/06 01:56:03;;;;;;;6.75;2.70;;;7.30;99.90;;;;;;4789116;30;20055;-85
2022/05/06 01:58:29;;;;;;;6.68;2.78;;;6.50;99.90;;;;;;4773334;30;20100;-85
2022/05/06 02:00:55;;;;;;;7.05;3.60;;;6.70;99.90;;;;;;4789202;29;20455;-85
2022/05/06 02:06:05;;;;;;;3.75;2.10;;;6.60;99.90;;;;;;4787002;30;20051;-85
2022/05/06 02:08:30;;;;;;;3.65;1.73;;;6.50;99.90;;;;;;4789299;30;20061;-85
2022/05/06 02:10:56;;;;;;;3.38;2.30;;;6.40;99.90;;;;;;4788865;30;20390;-85
2022/05/06 02:13:22;;;;;;;4.20;2.40;;;5.60;99.90;;;;;;4789026;30;20390;-85
2022/05/06 02:15:47;;;;;;;4.28;2.30;;;7.50;99.90;;;;;;4772705;29;20055;-85
2022/05/06 02:18:16;;;;;;;5.07;2.42;;;6.80;99.90;;;;;;4789050;30;20059;-84
2022/05/06 02:20:42;;;;;;;4.07;2.00;;;7.00;99.90;;;;;;4788855;30;20052;-85
2022/05/06 02:23:08;;;;;;;5.20;2.78;;;6.40;99.90;;;;;;4772818;30;20145;-85
2022/05/06 02:25:35;;;;;;;5.32;3.03;;;7.20;99.90;;;;;;4788581;30;20562;-84
2022/05/06 02:28:02;;;;;;;7.38;3.10;;;6.30;99.90;;;;;;4788837;30;20054;-85
2022/05/06 02:33:12;;;;;;;7.22;3.50;;;6.40;99.90;;;;;;4788790;30;20127;-84
2022/05/06 02:35:39;;;;;;;7.97;4.28;;;6.50;99.90;;;;;;4788695;30;20421;-84
2022/05/06 02:38:06;;;;;;;8.60;4.65;;;6.50;99.90;;;;;;4772748;30;20062;-84
2022/05/06 02:40:34;;;;;;;10.70;5.25;;;6.40;99.90;;;;;;4788586;30;20043;-84
2022/05/06 02:43:00;;;;;;;11.57;4.90;;;6.60;99.90;;;;;;4788710;30;20405;-84
2022/05/06 02:45:27;;;;;;;9.52;5.07;;;6.50;99.90;;;;;;4772431;30;20065;-84
2022/05/06 02:47:53;;;;;;;9.02;4.55;;;6.60;99.90;;;;;;4788491;30;20401;-84
2022/05/06 02:50:19;;;;;;;9.55;5.30;;;6.50;99.90;;;;;;4772083;30;20122;-85
2022/05/06 02:52:45;;;;;;;12.35;5.93;;;6.70;99.90;;;;;;4772416;29;20614;-85
2022/05/06 02:55:11;;;;;;;11.90;5.22;;;7.80;99.90;;;;;;4788844;30;20078;-85
2022/05/06 02:57:37;;;;;;;10.93;5.53;;;7.70;99.90;;;;;;4787748;30;20062;-84
2022/05/06 03:00:04;;;;;;;12.82;4.88;;;7.60;99.90;;;;;;4772155;30;20501;-85
2022/05/06 03:02:30;;;;;;;10.45;4.93;;;6.80;99.90;;;;;;4788027;30;20094;-83
2022/05/06 03:04:56;;;;;;;10.00;5.28;;;7.00;99.90;;;;;;4772692;30;20060;-84
2022/05/06 03:07:22;;;;;;;11.88;4.97;;;6.90;99.90;;;;;;4787941;30;20059;-84
2022/05/06 03:09:48;;;;;;;11.13;4.97;;;6.90;99.90;;;;;;4786929;30;20134;-84
2022/05/06 03:12:16;;;;;;;11.13;5.07;;;7.90;99.90;;;;;;4787724;29;20142;-85
2022/05/06 03:14:42;;;;;;;10.38;5.55;;;7.30;99.90;;;;;;4787839;30;20058;-85
2022/05/06 03:17:08;;;;;;;10.18;5.22;;;7.80;99.90;;;;;;4788274;30;20055;-85
2022/05/06 03:19:34;;;;;;;10.80;4.68;;;6.40;99.90;;;;;;4787474;30;20055;-84
2022/05/06 03:22:00;;;;;;;10.52;5.13;;;8.20;99.90;;;;;;4788316;30;20054;-84
2022/05/06 03:24:27;;;;;;;10.52;4.90;;;7.20;99.90;;;;;;4787743;30;20063;-84
2022/05/06 03:26:53;;;;;;;10.70;5.32;;;8.00;99.90;;;;;;4771610;30;20062;-85
2022/05/06 03:29:19;;;;;;;12.50;5.00;;;7.30;99.90;;;;;;4787500;30;20058;-84
2022/05/06 03:31:45;;;;;;;10.82;5.22;;;7.60;99.90;;;;;;4787387;30;20059;-84
2022/05/06 03:34:12;;;;;;;10.13;5.35;;;7.80;99.90;;;;;;4787863;30;20532;-84
2022/05/06 03:36:38;;;;;;;10.40;5.60;;;8.20;99.90;;;;;;4787723;30;20409;-85
2022/05/06 03:39:04;;;;;;;9.15;5.18;;;8.00;99.90;;;;;;4787715;30;20056;-85
2022/05/06 03:41:30;;;;;;;11.93;4.93;;;7.90;99.90;;;;;;4787367;30;20119;-85
2022/05/06 03:43:56;;;;;;;6.82;4.03;;;8.10;99.90;;;;;;4771451;30;20076;-85
2022/05/06 03:46:22;;;;;;;7.90;3.50;;;7.30;99.90;;;;;;4787779;30;20048;-85
2022/05/06 03:48:48;;;;;;;7.25;3.53;;;8.10;99.90;;;;;;4787481;30;20121;-84
2022/05/06 03:51:22;;;;;;;7.82;3.70;;;7.20;99.90;;;;;;4787230;30;20142;-85
2022/05/06 03:53:49;;;;;;;6.22;3.20;;;7.90;99.90;;;;;;4787125;30;20093;-84
2022/05/06 03:56:15;;;;;;;5.88;4.05;;;7.20;99.90;;;;;;4771626;30;20520;-85
2022/05/06 03:58:41;;;;;;;5.20;3.80;;;7.20;99.90;;;;;;4787195;30;20047;-85
2022/05/06 04:01:10;;;;;;;5.40;3.30;;;8.30;99.90;;;;;;4786863;30;20070;-85
2022/05/06 04:03:36;;;;;;;7.35;3.40;;;7.90;99.90;;;;;;4787298;30;20138;-84
2022/05/06 04:06:02;;;;;;;5.32;3.17;;;8.10;99.90;;;;;;4770403;30;20161;-85
2022/05/06 04:08:28;;;;;;;8.27;4.47;;;7.30;99.90;;;;;;4787400;30;20548;-85
2022/05/06 04:10:54;;;;;;;6.82;3.58;;;7.30;99.90;;;;;;4771728;30;20184;-85
2022/05/06 04:13:20;;;;;;;8.05;4.40;;;7.30;99.90;;;;;;4787106;30;20058;-84
2022/05/06 04:15:46;;;;;;;6.60;3.65;;;7.70;99.90;;;;;;4787162;30;20134;-85
2022/05/06 04:18:13;;;;;;;7.82;3.65;;;7.50;99.90;;;;;;4787525;30;20060;-85
2022/05/06 04:23:29;;;;;;;7.32;3.70;;;8.00;99.90;;;;;;4786143;30;20043;-85
2022/05/06 04:25:59;;;;;;;6.18;3.20;;;7.40;99.90;;;;;;4786797;30;20051;-84
2022/05/06 04:28:26;;;;;;;5.85;2.95;;;7.30;99.90;;;;;;4786875;30;20055;-85
2022/05/06 04:30:52;;;;;;;6.25;3.50;;;7.80;99.90;;;;;;4771025;30;20059;-84
2022/05/06 04:33:18;;;;;;;6.45;3.30;;;7.50;99.90;;;;;;4786839;30;20065;-84
2022/05/06 04:35:45;;;;;;;6.63;3.28;;;7.60;99.90;;;;;;4786846;30;20062;-84
2022/05/06 04:38:11;;;;;;;7.25;4.28;;;7.60;99.90;;;;;;4787302;29;20047;-84
2022/05/06 04:40:38;;;;;;;8.77;4.63;;;7.70;99.90;;;;;;4786898;30;20116;-84
2022/05/06 04:43:04;;;;;;;7.65;4.50;;;7.70;99.90;;;;;;4786388;30;20091;-84
2022/05/06 04:45:30;;;;;;;8.23;4.30;;;7.70;99.90;;;;;;4786978;30;20081;-83
2022/05/06 04:47:56;;;;;;;6.30;3.75;;;8.00;99.90;;;;;;4786853;30;20059;-84
2022/05/06 04:50:22;;;;;;;9.13;4.85;;;7.80;99.90;;;;;;4786788;30;20055;-84
2022/05/06 04:52:49;;;;;;;9.23;4.43;;;8.50;99.90;;;;;;4786566;30;20128;-84
2022/05/06 04:55:15;;;;;;;9.82;5.07;;;8.70;99.90;;;;;;4786520;30;20057;-84
2022/05/06 04:57:41;;;;;;;8.88;4.68;;;8.60;99.90;;;;;;4786828;30;20054;-83
2022/05/06 05:00:07;;;;;;;7.45;4.32;;;8.30;99.90;;;;;;4786445;30;20059;-83
2022/05/06 05:02:33;;;;;;;9.27;5.40;;;8.10;99.90;;;;;;4787096;30;20055;-83
2022/05/06 05:04:59;;;;;;;9.02;5.13;;;8.20;99.90;;;;;;4785889;30;20402;-83
2022/05/06 05:07:25;;;;;;;8.65;4.68;;;8.20;99.90;;;;;;4786528;30;20387;-83
2022/05/06 05:09:51;;;;;;;8.23;4.07;;;9.00;99.90;;;;;;4786176;30;20047;-83
2022/05/06 05:12:18;;;;;;;7.70;4.63;;;9.00;99.90;;;;;;4786699;30;20424;-83
2022/05/06 05:14:44;;;;;;;6.97;3.30;;;8.70;99.90;;;;;;4786177;30;20066;-84
2022/05/06 05:17:11;;;;;;;10.07;5.50;;;8.60;99.90;;;;;;4786362;30;20047;-83
2022/05/06 05:19:37;;;;;;;11.00;5.95;;;8.90;99.90;;;;;;4786830;30;20065;-83
2022/05/06 05:22:04;;;;;;;7.53;4.22;;;8.70;99.90;;;;;;4786615;30;20426;-83
2022/05/06 05:24:30;;;;;;;11.60;5.80;;;8.50;99.90;;;;;;4770665;30;20079;-84
2022/05/06 05:26:58;;;;;;;13.13;7.00;;;9.30;99.90;;;;;;4786347;30;20051;-83
2022/05/06 05:29:24;;;;;;;11.13;6.10;;;8.60;99.90;;;;;;4786060;30;20051;-84
2022/05/06 05:31:51;;;;;;;12.45;6.85;;;9.10;99.90;;;;;;4771369;30;20048;-83
2022/05/06 05:34:17;;;;;;;10.40;5.40;;;8.90;99.90;;;;;;4786783;29;20055;-84
2022/05/06 05:36:43;;;;;;;16.13;8.50;;;8.80;99.90;;;;;;4789417;30;20062;-83
2022/05/06 05:39:08;;;;;;;12.70;6.53;;;9.20;99.90;;;;;;4789470;30;20055;-84
2022/05/06 05:41:34;;;;;;;11.10;6.00;;;9.70;99.90;;;;;;4789562;30;20043;-84
2022/05/06 05:49:29;;;;;;;8.52;4.45;;;9.20;99.90;;;;;;4789715;30;20424;-83
2022/05/06 05:51:55;;;;;;;15.57;8.13;;;9.50;99.90;;;;;;4789420;30;20047;-83
2022/05/06 05:54:20;;;;;;;9.45;5.38;;;9.30;99.90;;;;;;4789297;29;20059;-83
2022/05/06 05:56:46;;;;;;;11.63;6.13;;;9.40;99.90;;;;;;4789533;30;20059;-83
2022/05/06 05:59:12;;;;;;;14.18;7.38;;;9.40;99.90;;;;;;4789280;30;20044;-83
2022/05/06 06:01:37;;;;;;;13.02;6.35;;;9.50;99.90;;;;;;4789566;30;20053;-83
2022/05/06 06:04:04;;;;;;;10.73;5.22;;;9.50;99.90;;;;;;4773379;30;20518;-82
2022/05/06 06:06:30;;;;;;;13.98;6.50;;;9.60;99.90;;;;;;4772268;30;20059;-83
2022/05/06 06:08:56;;;;;;;14.32;6.88;;;9.60;99.90;;;;;;4772705;30;20108;-82
2022/05/06 06:11:21;;;;;;;12.00;6.68;;;9.70;99.90;;;;;;4772746;30;20108;-83
2022/05/06 06:13:47;;;;;;;10.27;5.07;;;9.70;99.90;;;;;;4788811;30;20059;-83
2022/05/06 06:16:14;;;;;;;16.42;6.93;;;9.90;99.90;;;;;;4788936;30;20059;-83
2022/05/06 06:18:39;;;;;;;10.75;6.25;;;9.80;99.90;;;;;;4765662;30;20058;-83
2022/05/06 06:21:06;;;;;;;12.32;5.95;;;9.80;99.90;;;;;;4773207;30;20063;-82
2022/05/06 06:23:32;;;;;;;14.30;7.40;;;10.10;99.90;;;;;;4772113;30;20094;-83
2022/05/06 06:25:58;;;;;;;16.90;8.55;;;9.90;99.90;;;;;;4788746;30;20054;-85
2022/05/06 06:28:24;;;;;;;18.05;8.90;;;9.90;99.90;;;;;;4772407;30;20522;-84
2022/05/06 06:30:50;;;;;;;16.45;8.38;;;10.60;99.90;;;;;;4789090;30;20064;-83
2022/05/06 06:33:16;;;;;;;15.60;7.78;;;10.50;99.90;;;;;;4788735;30;20468;-84
2022/05/06 06:35:42;;;;;;;17.42;8.57;;;10.00;99.90;;;;;;4789189;30;20047;-83
2022/05/06 06:38:07;;;;;;;13.35;6.38;;;10.10;99.90;;;;;;4791627;30;20142;-85
2022/05/06 06:40:34;;;;;;;14.30;7.03;;;10.40;99.90;;;;;;4788559;30;20192;-83
2022/05/06 06:43:02;;;;;;;10.82;5.53;;;10.20;99.90;;;;;;4788283;30;20134;-84
2022/05/06 06:45:28;;;;;;;8.98;4.65;;;10.90;99.90;;;;;;4788646;30;20088;-82
2022/05/06 06:47:53;;;;;;;10.30;5.50;;;10.40;99.90;;;;;;4787406;29;20394;-82
2022/05/06 06:50:20;;;;;;;9.90;5.20;;;10.60;99.90;;;;;;4788486;30;20049;-83
2022/05/06 06:52:45;;;;;;;17.55;8.38;;;10.60;99.90;;;;;;4787917;29;20689;-82
2022/05/06 06:55:11;;;;;;;13.68;7.30;;;10.60;99.90;;;;;;4788566;30;20051;-82
2022/05/06 06:57:37;;;;;;;12.25;5.75;;;10.80;99.90;;;;;;4788163;30;20062;-81
2022/05/06 07:00:05;;;;;;;8.38;3.75;;;11.50;99.90;;;;;;4788590;30;20578;-82
2022/05/06 07:02:31;;;;;;;13.50;6.60;;;11.10;99.90;;;;;;4771986;30;20059;-84
2022/05/06 07:04:58;;;;;;;19.20;8.52;;;11.20;99.90;;;;;;4781142;30;20054;-83
2022/05/06 07:12:52;;;;;;;11.93;5.85;;;11.50;99.90;;;;;;4771614;30;20120;-84
2022/05/06 07:15:18;;;;;;;10.63;5.45;;;11.50;99.90;;;;;;4771869;30;20059;-82
2022/05/06 07:17:45;;;;;;;20.58;9.70;;;11.70;99.90;;;;;;4788081;30;20063;-82
2022/05/06 07:20:11;;;;;;;16.98;8.00;;;11.80;99.90;;;;;;4787314;30;20069;-83
2022/05/06 07:22:37;;;;;;;16.08;7.63;;;11.80;99.90;;;;;;4788152;30;20131;-83
2022/05/06 07:25:03;;;;;;;17.67;9.32;;;12.00;99.90;;;;;;4787334;30;20557;-82
2022/05/06 07:27:29;;;;;;;11.60;6.35;;;12.00;99.90;;;;;;4787659;30;20062;-83
2022/05/06 07:29:55;;;;;;;9.65;5.43;;;12.10;99.90;;;;;;4787830;30;20143;-82
2022/05/06 07:32:21;;;;;;;15.43;8.13;;;12.10;99.90;;;;;;4787660;30;20062;-83
2022/05/06 07:34:46;;;;;;;13.15;7.43;;;12.20;99.90;;;;;;4787866;30;20063;-83
2022/05/06 07:37:12;;;;;;;10.35;5.43;;;12.20;99.90;;;;;;4787558;30;20457;-83
2022/05/06 07:39:38;;;;;;;13.30;6.53;;;12.40;99.90;;;;;;4787633;30;20413;-82
2022/05/06 07:42:04;;;;;;;11.43;6.13;;;13.00;99.90;;;;;;4788009;30;20497;-83
2022/05/06 07:44:29;;;;;;;6.65;3.83;;;12.40;99.90;;;;;;4785412;29;20055;-82
2022/05/06 07:46:55;;;;;;;12.13;6.35;;;12.40;99.90;;;;;;4787401;29;20066;-83
2022/05/06 07:49:23;;;;;;;9.23;5.95;;;12.70;99.90;;;;;;4787141;30;20109;-83
2022/05/06 07:51:49;;;;;;;7.68;4.45;;;12.70;99.90;;;;;;4786994;30;20067;-83
2022/05/06 07:54:14;;;;;;;8.38;5.20;;;12.70;99.90;;;;;;4787166;29;20564;-83
2022/05/06 07:56:40;;;;;;;9.18;5.30;;;12.80;99.90;;;;;;4787319;30;20074;-83
2022/05/06 07:59:06;;;;;;;5.65;3.28;;;12.90;99.90;;;;;;4770872;30;20051;-83
2022/05/06 08:04:36;;;;;;;4.60;2.70;;;13.10;99.90;;;;;;4787648;30;20047;-83
2022/05/06 08:07:03;;;;;;;5.25;3.00;;;13.20;99.90;;;;;;4771041;30;20059;-84
2022/05/06 08:09:29;;;;;;;4.63;2.42;;;13.20;99.90;;;;;;4787092;30;20485;-84
2022/05/06 08:11:55;;;;;;;4.75;3.00;;;13.70;99.90;;;;;;4771175;30;20062;-83
2022/05/06 08:14:21;;;;;;;4.97;2.60;;;13.30;99.90;;;;;;4787290;30;20043;-85
2022/05/06 08:16:48;;;;;;;3.65;2.10;;;13.40;99.90;;;;;;4786783;30;20128;-84
2022/05/06 08:19:14;;;;;;;3.03;1.70;;;13.50;99.90;;;;;;4787143;30;20072;-84
2022/05/06 08:21:40;;;;;;;4.45;2.25;;;13.60;99.90;;;;;;4770116;30;20482;-83
2022/05/06 08:24:06;;;;;;;4.40;2.50;;;13.70;99.90;;;;;;4763763;30;20469;-83
2022/05/06 08:26:33;;;;;;;2.90;2.00;;;13.80;99.90;;;;;;4787692;30;20126;-83
2022/05/06 08:28:58;;;;;;;3.78;2.53;;;13.90;99.90;;;;;;4787762;30;20063;-83
2022/05/06 08:31:24;;;;;;;3.90;2.17;;;14.50;99.90;;;;;;4756671;30;20088;-83
2022/05/06 08:33:50;;;;;;;4.03;2.30;;;14.20;99.90;;;;;;4787513;30;20189;-82
2022/05/06 08:36:16;;;;;;;5.53;1.92;;;14.30;99.90;;;;;;4787365;30;20526;-83
2022/05/06 08:38:44;;;;;;;3.28;2.00;;;14.30;99.90;;;;;;4787600;30;20062;-83
2022/05/06 08:41:10;;;;;;;3.83;2.53;;;14.50;99.90;;;;;;4787644;29;20063;-82
2022/05/06 08:43:37;;;;;;;2.95;1.73;;;14.50;99.90;;;;;;4771517;30;20200;-82
2022/05/06 08:51:37;;;;;;;3.83;2.20;;;14.70;99.90;;;;;;4771092;30;20063;-83
2022/05/06 08:54:03;;;;;;;2.88;2.03;;;14.80;99.90;;;;;;4770978;30;20067;-83
2022/05/06 08:56:30;;;;;;;2.40;1.20;;;14.90;99.90;;;;;;4787409;30;20085;-83
2022/05/06 08:58:56;;;;;;;3.60;2.20;;;15.10;99.90;;;;;;4787357;29;20087;-83
2022/05/06 09:01:23;;;;;;;2.45;1.40;;;15.30;99.90;;;;;;4787292;30;20584;-82
2022/05/06 09:03:50;;;;;;;1.60;1.10;;;15.60;99.90;;;;;;4787296;30;20063;-82
2022/05/06 09:06:21;;;;;;;2.33;1.33;;;15.90;99.90;;;;;;4787168;30;20055;-82
2022/05/06 09:08:48;;;;;;;2.00;1.40;;;16.20;99.90;;;;;;4771049;29;20106;-83
2022/05/06 09:11:17;;;;;;;3.70;2.10;;;16.60;99.90;;;;;;4789962;30;20059;-83
2022/05/06 09:13:55;;;;;;;4.30;1.75;;;16.80;99.90;;;;;;4791009;30;20066;-83
2022/05/06 09:16:46;;;;;;;2.58;1.67;;;17.00;99.90;;;;;;4774683;30;20067;-82
2022/05/06 09:19:13;;;;;;;1.98;1.13;;;17.20;99.90;;;;;;4790877;30;20059;-82
2022/05/06 09:21:40;;;;;;;2.25;1.25;;;17.50;99.90;;;;;;4790824;30;20090;-82
2022/05/06 09:24:17;;;;;;;2.63;1.58;;;17.50;99.90;;;;;;4774403;30;20067;-83
2022/05/06 09:27:06;;;;;;;2.05;1.27;;;17.70;99.90;;;;;;4790404;30;20056;-82
2022/05/06 09:29:33;;;;;;;2.90;1.75;;;18.00;99.90;;;;;;4790328;30;20099;-83
2022/05/06 09:32:19;;;;;;;3.13;1.70;;;18.00;99.90;;;;;;4774272;30;20505;-83
2022/05/06 09:35:15;;;;;;;3.65;1.85;;;18.10;99.90;;;;;;4790299;30;20095;-83
2022/05/06 09:37:46;;;;;;;2.58;1.80;;;17.90;99.90;;;;;;4790539;30;20055;-83
2022/05/06 09:40:22;;;;;;;3.35;1.42;;;18.00;99.90;;;;;;4790207;30;20055;-83
2022/05/06 09:42:59;;;;;;;2.00;1.33;;;18.10;99.90;;;;;;4790284;30;20081;-83
2022/05/06 09:45:44;;;;;;;2.38;1.20;;;18.30;99.90;;;;;;4790114;30;20067;-83
2022/05/06 09:48:12;;;;;;;2.65;1.52;;;18.60;99.90;;;;;;4790269;29;20051;-82
2022/05/06 09:50:48;;;;;;;4.10;1.77;;;18.80;99.90;;;;;;4789879;30;20055;-83
2022/05/06 09:53:17;;;;;;;2.15;1.15;;;18.80;99.90;;;;;;4790034;29;20414;-83
2022/05/06 09:55:45;;;;;;;2.08;1.40;;;18.80;99.90;;;;;;4789915;30;20144;-83
2022/05/06 09:58:12;;;;;;;3.58;1.95;;;18.70;99.90;;;;;;4773875;30;20147;-83
2022/05/06 10:00:38;;;;;;;2.83;1.75;;;18.90;99.90;;;;;;4790033;30;20055;-83
2022/05/06 10:03:05;;;;;;;1.63;1.25;;;18.80;99.90;;;;;;4790059;30;20471;-83
2022/05/06 10:05:33;;;;;;;1.88;1.00;;;18.90;99.90;;;;;;4790173;30;20055;-83
2022/05/06 10:08:20;;;;;;;2.38;1.35;;;19.00;99.90;;;;;;4789644;30;20093;-83
2022/05/06 10:10:55;;;;;;;3.38;1.13;;;19.20;99.90;;;;;;4789399;30;20051;-83
2022/05/06 10:13:22;;;;;;;2.03;1.27;;;19.30;99.90;;;;;;4789960;30;20063;-82
2022/05/06 10:15:49;;;;;;;2.55;1.40;;;19.50;99.90;;;;;;4789878;30;20405;-83
2022/05/06 10:18:35;;;;;;;1.73;1.23;;;19.50;99.90;;;;;;4789640;30;20061;-83
2022/05/06 10:21:05;;;;;;;2.13;1.20;;;19.70;99.90;;;;;;4789460;29;20578;-82
2022/05/06 10:23:54;;;;;;;2.20;1.38;;;19.80;99.90;;;;;;4789349;30;20106;-83
2022/05/06 10:26:34;;;;;;;2.33;1.33;;;20.00;99.90;;;;;;4773360;30;20055;-83
2022/05/06 10:34:54;;;;;;;1.70;1.33;;;20.10;99.90;;;;;;4789660;30;20048;-83
2022/05/06 10:37:23;;;;;;;1.40;1.08;;;20.40;99.90;;;;;;4789243;29;20128;-83
2022/05/06 10:39:49;;;;;;;1.77;1.20;;;20.60;99.90;;;;;;4789073;30;20059;-82
2022/05/06 10:42:16;;;;;;;3.15;1.20;;;20.70;99.90;;;;;;4789103;30;20056;-83
2022/05/06 10:44:49;;;;;;;1.80;1.15;;;20.80;99.90;;;;;;4789434;30;20494;-83
2022/05/06 10:47:15;;;;;;;1.45;1.10;;;21.00;99.90;;;;;;4773306;30;20073;-83
2022/05/06 10:49:46;;;;;;;4.25;2.42;;;21.10;99.90;;;;;;4773213;30;20141;-83
2022/05/06 10:52:18;;;;;;;1.80;1.35;;;21.50;99.90;;;;;;4772479;30;20063;-86
2022/05/06 10:54:47;;;;;;;2.70;1.55;;;21.60;99.90;;;;;;4788804;29;20429;-87
2022/05/06 10:57:17;;;;;;;2.35;1.50;;;21.70;99.90;;;;;;4788977;30;20523;-86
2022/05/06 10:59:52;;;;;;;2.75;1.35;;;21.90;99.90;;;;;;4789020;30;20059;-85
2022/05/06 11:02:26;;;;;;;2.03;1.20;;;22.10;99.90;;;;;;4788660;30;20059;-85
2022/05/06 11:05:01;;;;;;;2.58;1.00;;;22.20;99.90;;;;;;4788853;30;20062;-87
2022/05/06 11:07:28;;;;;;;1.90;1.00;;;22.30;99.90;;;;;;4772982;30;20063;-86
2022/05/06 11:09:54;;;;;;;1.80;1.05;;;22.50;99.50;;;;;;4788949;30;20062;-86
2022/05/06 11:12:35;;;;;;;1.30;0.90;;;22.60;99.40;;;;;;4789054;30;20063;-85
2022/05/06 11:15:15;;;;;;;1.30;0.90;;;22.70;97.50;;;;;;4788619;30;20063;-87
2022/05/06 11:17:45;;;;;;;1.40;0.63;;;22.70;94.50;;;;;;4788505;30;20055;-87
2022/05/06 11:20:28;;;;;;;1.77;0.50;;;22.70;95.10;;;;;;4772251;30;20100;-85
2022/05/06 11:22:58;;;;;;;1.23;0.50;;;22.60;95.10;;;;;;4772820;30;20059;-86
2022/05/06 11:25:27;;;;;;;0.60;0.50;;;22.80;94.70;;;;;;4772916;30;20062;-87
2022/05/06 11:27:54;;;;;;;0.55;0.50;;;22.70;95.60;;;;;;4772106;30;20141;-86
2022/05/06 11:30:25;;;;;;;1.10;0.60;;;22.90;96.20;;;;;;4788480;30;20487;-87
2022/05/06 11:32:52;;;;;;;0.93;0.70;;;23.10;94.10;;;;;;4771674;30;20056;-87
2022/05/06 11:35:20;;;;;;;1.38;0.93;;;23.20;96.10;;;;;;4788518;30;20536;-87
2022/05/06 11:37:47;;;;;;;2.13;1.10;;;23.30;93.40;;;;;;4772448;30;20147;-87
2022/05/06 11:42:53;;;;;;;1.20;0.68;;;23.20;90.70;;;;;;4787096;30;20051;-85
2022/05/06 11:48:05;;;;;;;0.93;0.70;;;23.40;93.50;;;;;;4771686;30;20524;-85
2022/05/06 11:50:35;;;;;;;0.98;0.70;;;23.50;93.90;;;;;;4787296;30;20055;-86
2022/05/06 11:53:13;;;;;;;1.45;0.60;;;23.50;95.20;;;;;;4771805;30;20136;-87
2022/05/06 11:55:40;;;;;;;2.60;0.50;;;23.60;92.30;;;;;;4780416;30;20051;-89
2022/05/06 11:58:09;;;;;;;1.38;0.70;;;23.70;92.80;;;;;;4770981;30;20087;-87
2022/05/06 12:00:34;;;;;;;2.78;1.23;;;23.80;90.90;;;;;;4771904;30;20493;-86
2022/05/06 12:03:05;;;;;;;2.65;1.00;;;24.10;86.30;;;;;;4787964;29;20086;-87
2022/05/06 12:05:33;;;;;;;2.70;1.10;;;23.70;87.10;;;;;;4787356;30;20130;-86
2022/05/06 12:07:59;;;;;;;0.80;0.60;;;24.00;87.10;;;;;;4787688;29;20418;-86
2022/05/06 12:10:30;;;;;;;1.23;0.77;;;23.70;90.40;;;;;;4783734;29;20062;-86
2022/05/06 12:13:00;;;;;;;1.40;0.70;;;23.70;90.30;;;;;;4774668;30;20527;-86
2022/05/06 12:15:33;;;;;;;1.17;0.80;;;23.90;92.60;;;;;;4771901;30;20070;-88
2022/05/06 12:18:11;;;;;;;1.42;1.00;;;24.10;92.10;;;;;;4757047;30;20063;-87
2022/05/06 12:20:42;;;;;;;1.17;0.85;;;24.00;92.20;;;;;;4771406;30;20556;-88
2022/05/06 12:23:10;;;;;;;2.28;1.08;;;24.30;91.60;;;;;;4787240;30;20098;-86
2022/05/06 12:25:39;;;;;;;0.90;0.60;;;24.60;92.40;;;;;;4787688;30;20123;-85
2022/05/06 12:28:21;;;;;;;3.65;1.00;;;24.60;90.00;;;;;;4786817;29;20409;-87
2022/05/06 12:30:55;;;;;;;1.02;0.70;;;24.90;90.60;;;;;;4765925;30;20150;-83
2022/05/06 12:33:21;;;;;;;3.30;1.00;;;25.00;84.50;;;;;;4786393;29;20055;-84
2022/05/06 12:35:56;;;;;;;1.77;0.93;;;24.70;83.70;;;;;;4786511;29;20138;-83
2022/05/06 12:38:42;;;;;;;1.13;0.65;;;25.10;88.10;;;;;;4787201;30;20052;-82
2022/05/06 12:41:32;;;;;;;1.10;0.60;;;24.80;86.00;;;;;;4731979;30;20434;-83
2022/05/06 12:44:24;;;;;;;1.00;0.50;;;24.70;86.00;;;;;;4731875;30;20057;-86
2022/05/06 12:46:50;;;;;;;1.63;0.80;;;24.80;86.90;;;;;;4729440;30;20119;-83
2022/05/06 12:52:12;;;;;;;1.95;0.55;;;25.10;85.90;;;;;;4730720;30;20142;-83
2022/05/06 12:54:38;;;;;;;1.35;0.75;;;25.20;87.90;;;;;;4752095;30;20189;-84
2022/05/06 12:57:04;;;;;;;0.70;0.50;;;25.20;84.70;;;;;;4731206;30;20064;-84
2022/05/06 12:59:30;;;;;;;1.10;0.80;;;25.20;88.50;;;;;;4752722;30;20064;-83
2022/05/06 13:01:56;;;;;;;0.85;0.70;;;25.30;83.00;;;;;;4752638;30;20040;-84
2022/05/06 13:04:21;;;;;;;1.13;0.55;;;25.40;84.70;;;;;;4751928;30;20048;-83
2022/05/06 13:06:47;;;;;;;2.88;0.82;;;25.00;82.70;;;;;;4751362;30;20550;-84
2022/05/06 13:09:16;;;;;;;0.80;0.52;;;25.10;82.50;;;;;;4752640;30;20052;-85
2022/05/06 13:11:42;;;;;;;1.35;0.60;;;24.30;83.80;;;;;;4752840;30;20522;-85
2022/05/06 13:14:07;;;;;;;0.93;0.57;;;23.80;88.00;;;;;;4752700;30;20052;-83
2022/05/06 13:16:36;;;;;;;0.90;0.70;;;23.90;90.20;;;;;;4752329;30;20048;-87
2022/05/06 13:19:04;;;;;;;1.30;0.50;;;24.10;91.00;;;;;;4738104;30;20049;-84
2022/05/06 13:21:30;;;;;;;1.67;0.60;;;24.30;90.70;;;;;;4731710;30;20060;-83
2022/05/06 13:23:55;;;;;;;1.50;0.60;;;24.50;89.10;;;;;;4734830;30;20087;-84
2022/05/06 13:26:21;;;;;;;1.95;0.88;;;24.50;89.20;;;;;;4734840;30;20461;-83
2022/05/06 13:28:47;;;;;;;2.78;0.90;;;24.40;88.10;;;;;;4751524;30;20532;-84
2022/05/06 13:31:13;;;;;;;0.90;0.65;;;24.40;90.80;;;;;;4789321;30;20058;-84
2022/05/06 13:33:39;;;;;;;1.50;0.70;;;24.40;91.80;;;;;;4790095;29;20051;-83
2022/05/06 13:36:05;;;;;;;1.45;0.70;;;24.30;92.10;;;;;;4789734;29;20062;-84